sensor_id;sensor_type;location;lat;lon;timestamp;temperature;humidity
29571;DHT22;16814;52.118;11.436;2023-11-19T00:01:10;5.10;99.90
29571;DHT22;16814;52.118;11.436;2023-11-19T00:03:35;5.10;99.90
29571;DHT22;16814;52.118;11.436;2023-11-19T00:06:02;5.10;99.90
29571;DHT22;16814;52.118;11.436;2023-11-19T00:08:30;5.00;99.90
29571;DHT22;16814;52.118;11.436;2023-11-19T00:10:57;5.00;99.90
29571;DHT22;16814;52.118;11.436;2023-11-19T00:13:22;5.10;99.90
29571;DHT22;16814;52.118;11.436;2023-11-19T00:15:49;5.10;99.90
29571;DHT22;16814;52.118;11.436;2023-11-19T00:18:16;5.10;99.90
29571;DHT22;16814;52.118;11.436;2023-11-19T00:20:43;5.10;99.90
29571;DHT22;16814;52.118;11.436;2023-11-19T00:23:10;5.10;99.90
29571;DHT22;16814;52.118;11.436;2023-11-19T00:25:35;5.10;99.90
29571;DHT22;16814;52.118;11.436;2023-11-19T00:28:02;5.10;99.90
29571;DHT22;16814;52.118;11.436;2023-11-19T00:30:30;5.10;99.90
29571;DHT22;16814;52.118;11.436;2023-11-19T00:32:58;5.10;99.90
29571;DHT22;16814;52.118;11.436;2023-11-19T00:35:25;5.10;99.90
29571;DHT22;16814;52.118;11.436;2023-11-19T00:37:51;5.00;99.90
29571;DHT22;16814;52.118;11.436;2023-11-19T00:40:27;5.00;99.90
29571;DHT22;16814;52.118;11.436;2023-11-19T00:42:54;5.00;99.90
29571;DHT22;16814;52.118;11.436;2023-11-19T00:45:21;5.00;99.90
29571;DHT22;16814;52.118;11.436;2023-11-19T00:47:47;5.00;99.90
29571;DHT22;16814;52.118;11.436;2023-11-19T00:50:14;5.00;99.90
29571;DHT22;16814;52.118;11.436;2023-11-19T00:52:40;5.00;99.90
29571;DHT22;16814;52.118;11.436;2023-11-19T00:55:06;5.00;99.90
29571;DHT22;16814;52.118;11.436;2023-11-19T00:57:32;5.00;99.90
29571;DHT22;16814;52.118;11.436;2023-11-19T01:00:00;5.10;99.90
29571;DHT22;16814;52.118;11.436;2023-11-19T01:02:27;5.10;99.90
29571;DHT22;16814;52.118;11.436;2023-11-19T01:04:54;5.10;99.90
29571;DHT22;16814;52.118;11.436;2023-11-19T01:07:22;5.00;99.90
29571;DHT22;16814;52.118;11.436;2023-11-19T01:09:50;5.10;99.90
29571;DHT22;16814;52.118;11.436;2023-11-19T01:12:19;5.10;99.90
29571;DHT22;16814;52.118;11.436;2023-11-19T01:14:45;5.00;99.90
29571;DHT22;16814;52.118;11.436;2023-11-19T01:17:11;5.10;99.90
29571;DHT22;16814;52.118;11.436;2023-11-19T01:19:36;5.10;99.90
29571;DHT22;16814;52.118;11.436;2023-11-19T01:22:03;5.10;99.90
29571;DHT22;16814;52.118;11.436;2023-11-19T01:24:29;5.00;99.90
29571;DHT22;16814;52.118;11.436;2023-11-19T01:26:56;5.00;99.90
29571;DHT22;16814;52.118;11.436;2023-11-19T01:29:24;5.00;99.90
29571;DHT22;16814;52.118;11.436;2023-11-19T01:31:51;5.10;99.90
29571;DHT22;16814;52.118;11.436;2023-11-19T01:34:21;5.10;99.90
29571;DHT22;16814;52.118;11.436;2023-11-19T01:36:48;5.10;99.90
29571;DHT22;16814;52.118;11.436;2023-11-19T01:39:15;5.10;99.90
29571;DHT22;16814;52.118;11.436;2023-11-19T01:41:48;5.20;99.90
29571;DHT22;16814;52.118;11.436;2023-11-19T01:44:15;5.20;99.90
29571;DHT22;16814;52.118;11.436;2023-11-19T01:46:44;5.20;99.90
29571;DHT22;16814;52.118;11.436;2023-11-19T01:49:09;5.20;99.90
29571;DHT22;16814;52.118;11.436;2023-11-19T01:51:38;5.20;99.90
29571;DHT22;16814;52.118;11.436;2023-11-19T01:54:06;5.20;99.90
29571;DHT22;16814;52.118;11.436;2023-11-19T01:56:34;5.20;99.90
29571;DHT22;16814;52.118;11.436;2023-11-19T01:59:00;5.20;99.90
29571;DHT22;16814;52.118;11.436;2023-11-19T02:01:29;5.20;99.90
29571;DHT22;16814;52.118;11.436;2023-11-19T02:04:01;5.20;99.90
29571;DHT22;16814;52.118;11.436;2023-11-19T02:06:28;5.20;99.90
29571;DHT22;16814;52.118;11.436;2023-11-19T02:08:54;5.30;99.90
29571;DHT22;16814;52.118;11.436;2023-11-19T02:11:21;5.30;99.90
29571;DHT22;16814;52.118;11.436;2023-11-19T02:13:48;5.30;99.90
29571;DHT22;16814;52.118;11.436;2023-11-19T02:16:15;5.30;99.90
29571;DHT22;16814;52.118;11.436;2023-11-19T02:18:44;5.30;99.90
29571;DHT22;16814;52.118;11.436;2023-11-19T02:21:11;5.30;99.90
29571;DHT22;16814;52.118;11.436;2023-11-19T02:23:37;5.30;99.90
29571;DHT22;16814;52.118;11.436;2023-11-19T02:26:20;5.40;99.90
29571;DHT22;16814;52.118;11.436;2023-11-19T02:28:51;5.30;99.90
29571;DHT22;16814;52.118;11.436;2023-11-19T02:31:19;5.30;99.90
29571;DHT22;16814;52.118;11.436;2023-11-19T02:33:45;5.40;99.90
29571;DHT22;16814;52.118;11.436;2023-11-19T02:36:11;5.30;99.90
29571;DHT22;16814;52.118;11.436;2023-11-19T02:38:37;5.40;99.90
29571;DHT22;16814;52.118;11.436;2023-11-19T02:41:09;5.40;99.90
29571;DHT22;16814;52.118;11.436;2023-11-19T02:43:42;5.40;99.90
29571;DHT22;16814;52.118;11.436;2023-11-19T02:46:10;5.40;99.90
29571;DHT22;16814;52.118;11.436;2023-11-19T02:48:36;5.40;99.90
29571;DHT22;16814;52.118;11.436;2023-11-19T02:51:04;5.40;99.90
29571;DHT22;16814;52.118;11.436;2023-11-19T02:53:32;5.40;99.90
29571;DHT22;16814;52.118;11.436;2023-11-19T02:56:00;5.40;99.90
29571;DHT22;16814;52.118;11.436;2023-11-19T02:58:32;5.50;99.90
29571;DHT22;16814;52.118;11.436;2023-11-19T03:00:59;5.50;99.90
29571;DHT22;16814;52.118;11.436;2023-11-19T03:03:38;5.50;99.90
29571;DHT22;16814;52.118;11.436;2023-11-19T03:06:08;5.50;99.90
29571;DHT22;16814;52.118;11.436;2023-11-19T03:08:35;5.50;99.90
29571;DHT22;16814;52.118;11.436;2023-11-19T03:11:02;5.50;99.90
29571;DHT22;16814;52.118;11.436;2023-11-19T03:13:31;5.50;99.90
29571;DHT22;16814;52.118;11.436;2023-11-19T03:15:57;5.50;99.90
29571;DHT22;16814;52.118;11.436;2023-11-19T03:18:23;5.60;99.90
29571;DHT22;16814;52.118;11.436;2023-11-19T03:20:50;5.60;99.90
29571;DHT22;16814;52.118;11.436;2023-11-19T03:23:17;5.70;99.90
29571;DHT22;16814;52.118;11.436;2023-11-19T03:25:46;5.70;99.90
29571;DHT22;16814;52.118;11.436;2023-11-19T03:28:12;5.70;99.90
29571;DHT22;16814;52.118;11.436;2023-11-19T03:30:40;5.70;99.90
29571;DHT22;16814;52.118;11.436;2023-11-19T03:33:08;5.70;99.90
29571;DHT22;16814;52.118;11.436;2023-11-19T03:35:34;5.80;99.90
29571;DHT22;16814;52.118;11.436;2023-11-19T03:38:02;5.80;99.90
29571;DHT22;16814;52.118;11.436;2023-11-19T03:40:30;5.80;99.90
29571;DHT22;16814;52.118;11.436;2023-11-19T03:42:56;5.80;99.90
29571;DHT22;16814;52.118;11.436;2023-11-19T03:45:27;5.90;99.90
29571;DHT22;16814;52.118;11.436;2023-11-19T03:47:54;5.90;99.90
29571;DHT22;16814;52.118;11.436;2023-11-19T03:50:21;5.90;99.90
29571;DHT22;16814;52.118;11.436;2023-11-19T03:52:47;5.90;99.90
29571;DHT22;16814;52.118;11.436;2023-11-19T03:55:12;6.00;99.90
29571;DHT22;16814;52.118;11.436;2023-11-19T03:57:39;6.00;99.90
29571;DHT22;16814;52.118;11.436;2023-11-19T04:00:06;6.00;99.90
29571;DHT22;16814;52.118;11.436;2023-11-19T04:02:40;6.00;99.90
29571;DHT22;16814;52.118;11.436;2023-11-19T04:05:07;5.90;99.90
29571;DHT22;16814;52.118;11.436;2023-11-19T04:07:34;6.00;99.90
29571;DHT22;16814;52.118;11.436;2023-11-19T04:10:01;6.00;99.90
29571;DHT22;16814;52.118;11.436;2023-11-19T04:12:27;6.00;99.90
29571;DHT22;16814;52.118;11.436;2023-11-19T04:14:53;6.10;99.90
29571;DHT22;16814;52.118;11.436;2023-11-19T04:17:18;6.20;99.90
29571;DHT22;16814;52.118;11.436;2023-11-19T04:19:45;6.20;99.90
29571;DHT22;16814;52.118;11.436;2023-11-19T04:22:12;6.30;99.90
29571;DHT22;16814;52.118;11.436;2023-11-19T04:24:38;6.30;99.90
29571;DHT22;16814;52.118;11.436;2023-11-19T04:27:04;6.40;99.90
29571;DHT22;16814;52.118;11.436;2023-11-19T04:29:33;6.40;99.90
29571;DHT22;16814;52.118;11.436;2023-11-19T04:32:01;6.50;99.90
29571;DHT22;16814;52.118;11.436;2023-11-19T04:34:28;6.50;99.90
29571;DHT22;16814;52.118;11.436;2023-11-19T04:36:53;6.50;99.90
29571;DHT22;16814;52.118;11.436;2023-11-19T04:39:20;6.60;99.90
29571;DHT22;16814;52.118;11.436;2023-11-19T04:41:50;6.60;99.90
29571;DHT22;16814;52.118;11.436;2023-11-19T04:44:19;6.70;99.90
29571;DHT22;16814;52.118;11.436;2023-11-19T04:46:46;6.70;99.90
29571;DHT22;16814;52.118;11.436;2023-11-19T04:49:13;6.80;99.90
29571;DHT22;16814;52.118;11.436;2023-11-19T04:51:45;6.80;99.90
29571;DHT22;16814;52.118;11.436;2023-11-19T04:54:16;6.90;99.90
29571;DHT22;16814;52.118;11.436;2023-11-19T04:56:45;6.90;99.90
29571;DHT22;16814;52.118;11.436;2023-11-19T04:59:14;7.00;99.90
29571;DHT22;16814;52.118;11.436;2023-11-19T05:01:39;7.10;99.90
29571;DHT22;16814;52.118;11.436;2023-11-19T05:04:07;7.10;99.90
29571;DHT22;16814;52.118;11.436;2023-11-19T05:06:34;7.20;99.90
29571;DHT22;16814;52.118;11.436;2023-11-19T05:09:02;7.20;99.90
29571;DHT22;16814;52.118;11.436;2023-11-19T05:11:35;7.20;99.90
29571;DHT22;16814;52.118;11.436;2023-11-19T05:14:02;7.30;99.90
29571;DHT22;16814;52.118;11.436;2023-11-19T05:16:30;7.30;99.90
29571;DHT22;16814;52.118;11.436;2023-11-19T05:18:56;7.30;99.90
29571;DHT22;16814;52.118;11.436;2023-11-19T05:21:23;7.40;99.90
29571;DHT22;16814;52.118;11.436;2023-11-19T05:23:50;7.40;99.90
29571;DHT22;16814;52.118;11.436;2023-11-19T05:26:27;7.50;99.90
29571;DHT22;16814;52.118;11.436;2023-11-19T05:28:53;7.50;99.90
29571;DHT22;16814;52.118;11.436;2023-11-19T05:31:20;7.50;99.90
29571;DHT22;16814;52.118;11.436;2023-11-19T05:33:46;7.60;99.90
29571;DHT22;16814;52.118;11.436;2023-11-19T05:36:12;7.60;99.90
29571;DHT22;16814;52.118;11.436;2023-11-19T05:38:39;7.60;99.90
29571;DHT22;16814;52.118;11.436;2023-11-19T05:41:06;7.60;99.90
29571;DHT22;16814;52.118;11.436;2023-11-19T05:43:33;7.70;99.90
29571;DHT22;16814;52.118;11.436;2023-11-19T05:46:00;7.70;99.90
29571;DHT22;16814;52.118;11.436;2023-11-19T05:48:28;7.80;99.90
29571;DHT22;16814;52.118;11.436;2023-11-19T05:50:55;7.80;99.90
29571;DHT22;16814;52.118;11.436;2023-11-19T05:53:22;7.80;99.90
29571;DHT22;16814;52.118;11.436;2023-11-19T05:55:50;7.90;99.90
29571;DHT22;16814;52.118;11.436;2023-11-19T05:58:27;7.90;99.90
29571;DHT22;16814;52.118;11.436;2023-11-19T06:00:57;7.90;99.90
29571;DHT22;16814;52.118;11.436;2023-11-19T06:03:24;8.00;99.90
29571;DHT22;16814;52.118;11.436;2023-11-19T06:05:54;8.00;99.90
29571;DHT22;16814;52.118;11.436;2023-11-19T06:08:25;8.00;99.90
29571;DHT22;16814;52.118;11.436;2023-11-19T06:10:53;8.00;99.90
29571;DHT22;16814;52.118;11.436;2023-11-19T06:13:20;8.10;99.90
29571;DHT22;16814;52.118;11.436;2023-11-19T06:15:48;8.10;99.90
29571;DHT22;16814;52.118;11.436;2023-11-19T06:18:16;8.10;99.90
29571;DHT22;16814;52.118;11.436;2023-11-19T06:20:44;8.20;99.90
29571;DHT22;16814;52.118;11.436;2023-11-19T06:23:13;8.20;99.90
29571;DHT22;16814;52.118;11.436;2023-11-19T06:25:40;8.20;99.90
29571;DHT22;16814;52.118;11.436;2023-11-19T06:28:06;8.20;99.90
29571;DHT22;16814;52.118;11.436;2023-11-19T06:30:33;8.20;99.90
29571;DHT22;16814;52.118;11.436;2023-11-19T06:33:00;8.20;99.90
29571;DHT22;16814;52.118;11.436;2023-11-19T06:35:26;8.20;99.90
29571;DHT22;16814;52.118;11.436;2023-11-19T06:37:54;8.20;99.90
29571;DHT22;16814;52.118;11.436;2023-11-19T06:40:24;8.10;99.90
29571;DHT22;16814;52.118;11.436;2023-11-19T06:42:51;8.20;99.90
29571;DHT22;16814;52.118;11.436;2023-11-19T06:45:19;8.20;99.90
29571;DHT22;16814;52.118;11.436;2023-11-19T06:47:44;8.20;99.90
29571;DHT22;16814;52.118;11.436;2023-11-19T06:50:10;8.20;99.90
29571;DHT22;16814;52.118;11.436;2023-11-19T06:52:38;8.20;99.90
29571;DHT22;16814;52.118;11.436;2023-11-19T06:55:08;8.20;99.90
29571;DHT22;16814;52.118;11.436;2023-11-19T06:57:35;8.30;99.90
29571;DHT22;16814;52.118;11.436;2023-11-19T07:00:01;8.20;99.90
29571;DHT22;16814;52.118;11.436;2023-11-19T07:02:26;8.30;99.90
29571;DHT22;16814;52.118;11.436;2023-11-19T07:04:53;8.40;99.90
29571;DHT22;16814;52.118;11.436;2023-11-19T07:07:21;8.40;99.90
29571;DHT22;16814;52.118;11.436;2023-11-19T07:09:48;8.50;99.90
29571;DHT22;16814;52.118;11.436;2023-11-19T07:12:14;8.50;99.90
29571;DHT22;16814;52.118;11.436;2023-11-19T07:14:40;8.60;99.90
29571;DHT22;16814;52.118;11.436;2023-11-19T07:17:07;8.70;99.90
29571;DHT22;16814;52.118;11.436;2023-11-19T07:19:44;8.60;99.90
29571;DHT22;16814;52.118;11.436;2023-11-19T07:22:11;8.70;99.90
29571;DHT22;16814;52.118;11.436;2023-11-19T07:24:40;8.70;99.90
29571;DHT22;16814;52.118;11.436;2023-11-19T07:27:07;8.80;99.90
29571;DHT22;16814;52.118;11.436;2023-11-19T07:29:37;8.80;99.90
29571;DHT22;16814;52.118;11.436;2023-11-19T07:32:03;8.90;99.90
29571;DHT22;16814;52.118;11.436;2023-11-19T07:34:34;8.90;99.90
29571;DHT22;16814;52.118;11.436;2023-11-19T07:37:01;8.90;99.90
29571;DHT22;16814;52.118;11.436;2023-11-19T07:39:31;8.90;99.90
29571;DHT22;16814;52.118;11.436;2023-11-19T07:41:59;9.00;99.90
29571;DHT22;16814;52.118;11.436;2023-11-19T07:44:25;9.00;99.90
29571;DHT22;16814;52.118;11.436;2023-11-19T07:46:51;9.10;99.90
29571;DHT22;16814;52.118;11.436;2023-11-19T07:49:18;9.20;99.90
29571;DHT22;16814;52.118;11.436;2023-11-19T07:51:45;9.20;99.90
29571;DHT22;16814;52.118;11.436;2023-11-19T07:54:12;9.30;99.90
29571;DHT22;16814;52.118;11.436;2023-11-19T07:56:41;9.50;99.90
29571;DHT22;16814;52.118;11.436;2023-11-19T07:59:07;9.60;99.90
29571;DHT22;16814;52.118;11.436;2023-11-19T08:01:34;9.70;99.90
29571;DHT22;16814;52.118;11.436;2023-11-19T08:04:01;9.80;99.90
29571;DHT22;16814;52.118;11.436;2023-11-19T08:06:29;9.80;99.90
29571;DHT22;16814;52.118;11.436;2023-11-19T08:08:55;9.90;99.90
29571;DHT22;16814;52.118;11.436;2023-11-19T08:11:20;10.00;99.90
29571;DHT22;16814;52.118;11.436;2023-11-19T08:13:48;10.00;99.90
29571;DHT22;16814;52.118;11.436;2023-11-19T08:16:17;10.10;99.90
29571;DHT22;16814;52.118;11.436;2023-11-19T08:18:44;10.10;99.90
29571;DHT22;16814;52.118;11.436;2023-11-19T08:21:13;10.20;99.90
29571;DHT22;16814;52.118;11.436;2023-11-19T08:23:41;10.20;99.90
29571;DHT22;16814;52.118;11.436;2023-11-19T08:26:08;10.30;99.90
29571;DHT22;16814;52.118;11.436;2023-11-19T08:28:34;10.30;99.90
29571;DHT22;16814;52.118;11.436;2023-11-19T08:31:01;10.30;99.90
29571;DHT22;16814;52.118;11.436;2023-11-19T08:33:31;10.40;99.90
29571;DHT22;16814;52.118;11.436;2023-11-19T08:36:00;10.40;99.90
29571;DHT22;16814;52.118;11.436;2023-11-19T08:38:26;10.40;99.90
29571;DHT22;16814;52.118;11.436;2023-11-19T08:40:52;10.40;99.90
29571;DHT22;16814;52.118;11.436;2023-11-19T08:43:19;10.50;99.90
29571;DHT22;16814;52.118;11.436;2023-11-19T08:45:47;10.50;99.90
29571;DHT22;16814;52.118;11.436;2023-11-19T08:48:13;10.60;99.90
29571;DHT22;16814;52.118;11.436;2023-11-19T08:50:40;10.60;99.90
29571;DHT22;16814;52.118;11.436;2023-11-19T08:53:06;10.70;99.90
29571;DHT22;16814;52.118;11.436;2023-11-19T08:55:32;10.60;99.90
29571;DHT22;16814;52.118;11.436;2023-11-19T08:57:59;10.70;99.90
29571;DHT22;16814;52.118;11.436;2023-11-19T09:00:30;10.70;99.90
29571;DHT22;16814;52.118;11.436;2023-11-19T09:02:59;10.70;99.90
29571;DHT22;16814;52.118;11.436;2023-11-19T09:05:26;10.80;99.90
29571;DHT22;16814;52.118;11.436;2023-11-19T09:07:53;10.80;99.90
29571;DHT22;16814;52.118;11.436;2023-11-19T09:10:20;10.80;99.90
29571;DHT22;16814;52.118;11.436;2023-11-19T09:12:47;10.80;99.90
29571;DHT22;16814;52.118;11.436;2023-11-19T09:15:13;10.90;99.90
29571;DHT22;16814;52.118;11.436;2023-11-19T09:17:44;10.90;99.90
29571;DHT22;16814;52.118;11.436;2023-11-19T09:20:12;11.10;99.90
29571;DHT22;16814;52.118;11.436;2023-11-19T09:22:41;11.00;99.90
29571;DHT22;16814;52.118;11.436;2023-11-19T09:25:08;11.10;99.90
29571;DHT22;16814;52.118;11.436;2023-11-19T09:27:35;11.10;99.90
29571;DHT22;16814;52.118;11.436;2023-11-19T09:30:01;11.10;99.90
29571;DHT22;16814;52.118;11.436;2023-11-19T09:32:29;11.20;99.90
29571;DHT22;16814;52.118;11.436;2023-11-19T09:34:54;11.20;99.90
29571;DHT22;16814;52.118;11.436;2023-11-19T09:37:21;11.20;99.90
29571;DHT22;16814;52.118;11.436;2023-11-19T09:39:47;11.20;99.90
29571;DHT22;16814;52.118;11.436;2023-11-19T09:42:14;11.20;99.90
29571;DHT22;16814;52.118;11.436;2023-11-19T09:44:42;11.10;99.90
29571;DHT22;16814;52.118;11.436;2023-11-19T09:47:11;11.10;99.90
29571;DHT22;16814;52.118;11.436;2023-11-19T09:49:37;11.10;99.90
29571;DHT22;16814;52.118;11.436;2023-11-19T09:52:06;11.10;99.90
29571;DHT22;16814;52.118;11.436;2023-11-19T09:54:32;11.20;99.90
29571;DHT22;16814;52.118;11.436;2023-11-19T09:57:02;11.20;99.90
29571;DHT22;16814;52.118;11.436;2023-11-19T09:59:36;11.20;99.90
29571;DHT22;16814;52.118;11.436;2023-11-19T10:02:03;11.30;99.90
29571;DHT22;16814;52.118;11.436;2023-11-19T10:04:32;11.30;99.90
29571;DHT22;16814;52.118;11.436;2023-11-19T10:06:59;11.40;99.90
29571;DHT22;16814;52.118;11.436;2023-11-19T10:09:26;11.40;99.90
29571;DHT22;16814;52.118;11.436;2023-11-19T10:11:53;11.50;99.90
29571;DHT22;16814;52.118;11.436;2023-11-19T10:14:23;11.50;99.90
29571;DHT22;16814;52.118;11.436;2023-11-19T10:16:50;11.50;99.90
29571;DHT22;16814;52.118;11.436;2023-11-19T10:19:21;11.50;99.90
29571;DHT22;16814;52.118;11.436;2023-11-19T10:21:46;11.50;99.90
29571;DHT22;16814;52.118;11.436;2023-11-19T10:24:14;11.50;99.90
29571;DHT22;16814;52.118;11.436;2023-11-19T10:26:41;11.40;99.90
29571;DHT22;16814;52.118;11.436;2023-11-19T10:29:07;11.50;99.90
29571;DHT22;16814;52.118;11.436;2023-11-19T10:31:34;11.50;99.90
29571;DHT22;16814;52.118;11.436;2023-11-19T10:34:01;11.50;99.90
29571;DHT22;16814;52.118;11.436;2023-11-19T10:36:41;11.60;99.90
29571;DHT22;16814;52.118;11.436;2023-11-19T10:39:08;11.50;99.90
29571;DHT22;16814;52.118;11.436;2023-11-19T10:41:37;11.50;99.90
29571;DHT22;16814;52.118;11.436;2023-11-19T10:44:04;11.50;99.90
29571;DHT22;16814;52.118;11.436;2023-11-19T10:46:40;11.50;99.90
29571;DHT22;16814;52.118;11.436;2023-11-19T10:49:09;11.50;99.90
29571;DHT22;16814;52.118;11.436;2023-11-19T10:51:36;11.70;99.90
29571;DHT22;16814;52.118;11.436;2023-11-19T10:54:06;11.80;99.90
29571;DHT22;16814;52.118;11.436;2023-11-19T10:56:34;11.90;99.90
29571;DHT22;16814;52.118;11.436;2023-11-19T10:59:02;11.90;99.90
29571;DHT22;16814;52.118;11.436;2023-11-19T11:01:39;12.00;99.90
29571;DHT22;16814;52.118;11.436;2023-11-19T11:04:26;12.10;99.90
29571;DHT22;16814;52.118;11.436;2023-11-19T11:06:55;12.20;99.90
29571;DHT22;16814;52.118;11.436;2023-11-19T11:09:27;12.30;99.90
29571;DHT22;16814;52.118;11.436;2023-11-19T11:11:55;12.40;99.90
29571;DHT22;16814;52.118;11.436;2023-11-19T11:14:24;12.60;99.90
29571;DHT22;16814;52.118;11.436;2023-11-19T11:16:53;12.60;99.90
29571;DHT22;16814;52.118;11.436;2023-11-19T11:19:21;12.60;99.90
29571;DHT22;16814;52.118;11.436;2023-11-19T11:21:53;12.60;99.90
29571;DHT22;16814;52.118;11.436;2023-11-19T11:24:31;12.60;99.90
29571;DHT22;16814;52.118;11.436;2023-11-19T11:36:04;12.70;99.90
29571;DHT22;16814;52.118;11.436;2023-11-19T11:38:36;12.70;99.90
29571;DHT22;16814;52.118;11.436;2023-11-19T11:43:57;12.70;99.90
29571;DHT22;16814;52.118;11.436;2023-11-19T11:49:08;12.70;99.90
29571;DHT22;16814;52.118;11.436;2023-11-19T11:57:11;12.70;99.90
29571;DHT22;16814;52.118;11.436;2023-11-19T12:02:25;12.80;99.90
29571;DHT22;16814;52.118;11.436;2023-11-19T12:04:53;12.90;99.90
29571;DHT22;16814;52.118;11.436;2023-11-19T12:07:22;12.90;99.90
29571;DHT22;16814;52.118;11.436;2023-11-19T12:10:05;12.90;99.90
29571;DHT22;16814;52.118;11.436;2023-11-19T12:12:39;12.90;99.90
29571;DHT22;16814;52.118;11.436;2023-11-19T12:15:09;12.80;99.90
29571;DHT22;16814;52.118;11.436;2023-11-19T12:17:50;12.80;99.90
29571;DHT22;16814;52.118;11.436;2023-11-19T12:20:19;12.70;99.90
29571;DHT22;16814;52.118;11.436;2023-11-19T12:22:48;12.70;99.90
29571;DHT22;16814;52.118;11.436;2023-11-19T12:25:16;12.70;99.90
29571;DHT22;16814;52.118;11.436;2023-11-19T12:27:50;12.70;99.90
29571;DHT22;16814;52.118;11.436;2023-11-19T12:30:30;12.60;99.90
29571;DHT22;16814;52.118;11.436;2023-11-19T12:32:57;12.70;99.90
29571;DHT22;16814;52.118;11.436;2023-11-19T12:35:23;12.70;99.90
29571;DHT22;16814;52.118;11.436;2023-11-19T12:37:51;12.60;99.90
29571;DHT22;16814;52.118;11.436;2023-11-19T12:40:24;12.60;99.90
29571;DHT22;16814;52.118;11.436;2023-11-19T12:42:53;12.60;99.90
29571;DHT22;16814;52.118;11.436;2023-11-19T12:45:23;12.50;99.90
29571;DHT22;16814;52.118;11.436;2023-11-19T12:48:06;12.50;99.90
29571;DHT22;16814;52.118;11.436;2023-11-19T12:50:52;12.50;99.90
29571;DHT22;16814;52.118;11.436;2023-11-19T12:53:24;12.50;99.90
29571;DHT22;16814;52.118;11.436;2023-11-19T12:55:52;12.50;99.90
29571;DHT22;16814;52.118;11.436;2023-11-19T12:58:36;12.50;99.90
29571;DHT22;16814;52.118;11.436;2023-11-19T13:01:05;12.50;99.90
29571;DHT22;16814;52.118;11.436;2023-11-19T13:03:35;12.50;99.90
29571;DHT22;16814;52.118;11.436;2023-11-19T13:06:06;12.40;99.90
29571;DHT22;16814;52.118;11.436;2023-11-19T13:08:50;12.40;99.90
29571;DHT22;16814;52.118;11.436;2023-11-19T13:11:37;12.30;99.90
29571;DHT22;16814;52.118;11.436;2023-11-19T13:14:05;12.30;99.90
29571;DHT22;16814;52.118;11.436;2023-11-19T13:16:38;12.30;99.90
29571;DHT22;16814;52.118;11.436;2023-11-19T13:19:08;12.30;99.90
29571;DHT22;16814;52.118;11.436;2023-11-19T13:21:39;12.30;99.90
29571;DHT22;16814;52.118;11.436;2023-11-19T13:24:07;12.30;99.90
29571;DHT22;16814;52.118;11.436;2023-11-19T13:26:34;12.30;99.90
29571;DHT22;16814;52.118;11.436;2023-11-19T13:29:01;12.30;99.90
29571;DHT22;16814;52.118;11.436;2023-11-19T13:31:30;12.40;99.90
29571;DHT22;16814;52.118;11.436;2023-11-19T13:33:57;12.40;99.90
29571;DHT22;16814;52.118;11.436;2023-11-19T13:36:31;12.50;99.90
29571;DHT22;16814;52.118;11.436;2023-11-19T13:38:58;12.40;99.90
29571;DHT22;16814;52.118;11.436;2023-11-19T13:41:30;12.40;99.90
29571;DHT22;16814;52.118;11.436;2023-11-19T13:43:57;12.40;99.90
29571;DHT22;16814;52.118;11.436;2023-11-19T13:46:25;12.30;99.90
29571;DHT22;16814;52.118;11.436;2023-11-19T13:48:52;12.20;99.90
29571;DHT22;16814;52.118;11.436;2023-11-19T13:51:17;12.20;99.90
29571;DHT22;16814;52.118;11.436;2023-11-19T13:53:44;12.20;99.90
29571;DHT22;16814;52.118;11.436;2023-11-19T13:56:11;12.10;99.90
29571;DHT22;16814;52.118;11.436;2023-11-19T13:58:39;12.10;99.90
29571;DHT22;16814;52.118;11.436;2023-11-19T14:01:07;12.00;99.90
29571;DHT22;16814;52.118;11.436;2023-11-19T14:03:33;12.00;99.90
29571;DHT22;16814;52.118;11.436;2023-11-19T14:06:01;12.00;99.90
29571;DHT22;16814;52.118;11.436;2023-11-19T14:08:28;12.00;99.90
29571;DHT22;16814;52.118;11.436;2023-11-19T14:10:53;12.00;99.90
29571;DHT22;16814;52.118;11.436;2023-11-19T14:13:23;12.00;99.90
29571;DHT22;16814;52.118;11.436;2023-11-19T14:15:50;11.90;99.90
29571;DHT22;16814;52.118;11.436;2023-11-19T14:18:18;11.90;99.90
29571;DHT22;16814;52.118;11.436;2023-11-19T14:20:46;11.90;99.90
29571;DHT22;16814;52.118;11.436;2023-11-19T14:23:12;11.90;99.90
29571;DHT22;16814;52.118;11.436;2023-11-19T14:25:39;11.80;99.90
29571;DHT22;16814;52.118;11.436;2023-11-19T14:28:05;11.80;99.90
29571;DHT22;16814;52.118;11.436;2023-11-19T14:30:32;11.80;99.90
29571;DHT22;16814;52.118;11.436;2023-11-19T14:33:00;11.70;99.90
29571;DHT22;16814;52.118;11.436;2023-11-19T14:35:26;11.80;99.90
29571;DHT22;16814;52.118;11.436;2023-11-19T14:37:52;11.70;99.90
29571;DHT22;16814;52.118;11.436;2023-11-19T14:40:18;11.70;99.90
29571;DHT22;16814;52.118;11.436;2023-11-19T14:42:51;11.70;99.90
29571;DHT22;16814;52.118;11.436;2023-11-19T14:45:19;11.60;99.90
29571;DHT22;16814;52.118;11.436;2023-11-19T14:47:45;11.60;99.90
29571;DHT22;16814;52.118;11.436;2023-11-19T14:50:11;11.60;99.90
29571;DHT22;16814;52.118;11.436;2023-11-19T14:52:38;11.60;99.90
29571;DHT22;16814;52.118;11.436;2023-11-19T14:55:04;11.60;99.90
29571;DHT22;16814;52.118;11.436;2023-11-19T14:57:30;11.60;99.90
29571;DHT22;16814;52.118;11.436;2023-11-19T14:59:57;11.50;99.90
29571;DHT22;16814;52.118;11.436;2023-11-19T15:02:25;11.50;99.90
29571;DHT22;16814;52.118;11.436;2023-11-19T15:04:52;11.50;99.90
29571;DHT22;16814;52.118;11.436;2023-11-19T15:07:17;11.50;99.90
29571;DHT22;16814;52.118;11.436;2023-11-19T15:09:50;11.50;99.90
29571;DHT22;16814;52.118;11.436;2023-11-19T15:12:16;11.50;99.90
29571;DHT22;16814;52.118;11.436;2023-11-19T15:14:44;11.40;99.90
29571;DHT22;16814;52.118;11.436;2023-11-19T15:17:10;11.40;99.90
29571;DHT22;16814;52.118;11.436;2023-11-19T15:19:36;11.50;99.90
29571;DHT22;16814;52.118;11.436;2023-11-19T15:22:02;11.40;99.90
29571;DHT22;16814;52.118;11.436;2023-11-19T15:24:33;11.40;99.90
29571;DHT22;16814;52.118;11.436;2023-11-19T15:27:00;11.40;99.90
29571;DHT22;16814;52.118;11.436;2023-11-19T15:29:26;11.40;99.90
29571;DHT22;16814;52.118;11.436;2023-11-19T15:31:52;11.40;99.90
29571;DHT22;16814;52.118;11.436;2023-11-19T15:34:17;11.30;99.90
29571;DHT22;16814;52.118;11.436;2023-11-19T15:36:47;11.30;99.90
29571;DHT22;16814;52.118;11.436;2023-11-19T15:39:16;11.20;99.90
29571;DHT22;16814;52.118;11.436;2023-11-19T15:41:42;11.20;99.90
29571;DHT22;16814;52.118;11.436;2023-11-19T15:44:08;11.20;99.90
29571;DHT22;16814;52.118;11.436;2023-11-19T15:46:35;11.00;99.90
29571;DHT22;16814;52.118;11.436;2023-11-19T15:49:00;11.10;99.90
29571;DHT22;16814;52.118;11.436;2023-11-19T15:51:27;11.00;99.90
29571;DHT22;16814;52.118;11.436;2023-11-19T15:53:54;11.10;99.90